»·PEaware :: AAL104 KDCA-KJFK

AAL104 :: KDCA-KJFK

FLIGHT INFORMATION

Flight Status: Arrived
Operator:
American Airlines
More flights by this operator :: More flights under this callsign
Pilot: Tamas B. (15764)
Aircraft: BOEING 737-800
(B738)
More flights by this aircraft type
Origin: KDCA Ronald Reagan Washington Natl
United States
Destination: KJFK Kennedy Intl
United States
More flights between these airports :: More routes between these airports
Route: DOCTR3 AGARD DONIL V229 PANZE V44 CAMRN
File this flight plan on PilotEdge
Remarks: PBN / A1B1C1D1S1S2 DOF / 180116 REG / N800NN EET / KZNY0024 OPR / AAL PER / C RMK / TCAS SIMBRIEF
Altitude:
(Current/Filed)
25,000ft
Speed:
(Current/Filed)
455kts
Departed: 16-Jan-18 09:49 AM
Arrived: 16-Jan-18 10:35 AM
Distance/Time
Traveled:
185nm/0:46
Distance/Time
To Go:
Arrived

Flight Plot

Page will automatically refresh every two minutes.

Flight plan parsing failed; only flown route is shown


Map Options




Map Legend


Flown Route
Filed Route
Departure Airport
Arrival Airport
Navaid (VOR, NDB)
Fix

Horizontal Profiles

Position Reports

Time Latitude Longitude Heading Altitude Ground
Speed
16-Jan-18 09:06 38.852558 -77.041685 164 23ft 0kts
16-Jan-18 09:07 38.852558 -77.041685 165 22ft 0kts
16-Jan-18 09:08 38.852558 -77.041685 165 22ft 0kts
16-Jan-18 09:09 38.852558 -77.041685 165 22ft 0kts
16-Jan-18 09:10 38.852558 -77.041685 165 22ft 0kts
16-Jan-18 09:11 38.852558 -77.041685 165 22ft 0kts
16-Jan-18 09:12 38.852558 -77.041685 165 22ft 0kts
16-Jan-18 09:13 38.852558 -77.041685 165 22ft 0kts
16-Jan-18 09:14 38.852558 -77.041685 165 22ft 0kts
16-Jan-18 09:15 38.852558 -77.041685 165 22ft 0kts
16-Jan-18 09:16 38.852558 -77.041685 165 22ft 0kts
16-Jan-18 09:17 38.852558 -77.041685 165 22ft 0kts
16-Jan-18 09:18 38.852558 -77.041685 165 22ft 0kts
16-Jan-18 09:19 38.852558 -77.041685 165 22ft 0kts
16-Jan-18 09:20 38.852558 -77.041685 165 22ft 0kts
16-Jan-18 09:21 38.852558 -77.041685 165 22ft 0kts
16-Jan-18 09:22 38.852558 -77.041685 165 22ft 0kts
16-Jan-18 09:23 38.852558 -77.041685 165 22ft 0kts
16-Jan-18 09:24 38.852558 -77.041685 165 22ft 0kts
16-Jan-18 09:25 38.852558 -77.041685 165 22ft 0kts
16-Jan-18 09:26 38.852558 -77.041685 165 22ft 0kts
16-Jan-18 09:27 38.852558 -77.041685 165 22ft 0kts
16-Jan-18 09:28 38.852558 -77.041685 165 22ft 0kts
16-Jan-18 09:29 38.852558 -77.041685 165 22ft 0kts
16-Jan-18 09:30 38.852558 -77.041685 165 22ft 0kts
16-Jan-18 09:31 38.852558 -77.041685 165 22ft 0kts
16-Jan-18 09:32 38.852558 -77.041685 165 22ft 0kts
16-Jan-18 09:33 38.852558 -77.041685 165 22ft 0kts
16-Jan-18 09:34 38.852558 -77.041685 165 22ft 0kts
16-Jan-18 09:35 38.852558 -77.041685 165 22ft 0kts
16-Jan-18 09:36 38.852558 -77.041685 165 22ft 0kts
16-Jan-18 09:37 38.852558 -77.041685 165 22ft 0kts
16-Jan-18 09:38 38.852558 -77.041685 165 22ft 0kts
16-Jan-18 09:39 38.852558 -77.041685 165 22ft 0kts
16-Jan-18 09:40 38.852558 -77.041685 165 22ft 0kts
16-Jan-18 09:41 38.852558 -77.041685 165 22ft 0kts
16-Jan-18 09:42 38.852558 -77.041685 165 22ft 0kts
16-Jan-18 09:43 38.852559 -77.041685 165 23ft 0kts
16-Jan-18 09:44 38.853019 -77.042053 130 22ft 2kts
16-Jan-18 09:45 38.853170 -77.042328 125 22ft 0kts
16-Jan-18 09:46 38.853170 -77.042328 125 22ft 0kts
16-Jan-18 09:47 38.853170 -77.042328 125 22ft 0kts
16-Jan-18 09:48 38.853170 -77.042328 125 22ft 0kts
16-Jan-18 09:49 38.853242 -77.040678 72 22ft 10kts
16-Jan-18 09:50 38.851680 -77.039190 176 22ft 13kts
16-Jan-18 09:51 38.846683 -77.038677 175 22ft 18kts
16-Jan-18 09:52 38.844584 -77.038488 175 22ft 7kts
16-Jan-18 09:53 38.842860 -77.038129 139 22ft 0kts
16-Jan-18 09:54 38.842554 -77.037075 53 22ft 3kts
16-Jan-18 09:55 38.861097 -77.038753 355 392ft 167kts
16-Jan-18 09:56 38.903522 -77.074226 300 2568ft 235kts
16-Jan-18 09:57 38.949255 -77.136136 330 5334ft 275kts
16-Jan-18 09:58 39.014944 -77.124462 29 8537ft 280kts
16-Jan-18 09:59 39.040004 -77.030723 101 10599ft 335kts
16-Jan-18 10:00 39.029013 -76.918759 102 13249ft 357kts
16-Jan-18 10:01 39.020519 -76.811282 101 15601ft 375kts
16-Jan-18 10:02 39.011643 -76.692458 101 17971ft 392kts
16-Jan-18 10:03 39.009274 -76.563614 95 20241ft 415kts
16-Jan-18 10:04 39.009800 -76.422727 95 22479ft 433kts
16-Jan-18 10:05 39.022797 -76.279765 87 24450ft 456kts
16-Jan-18 10:06 39.038338 -76.122978 87 25552ft 484kts
16-Jan-18 10:07 39.049000 -75.950611 92 25545ft 509kts
16-Jan-18 10:08 39.056122 -75.773975 92 25540ft 507kts
16-Jan-18 10:09 39.063564 -75.597241 91 25518ft 507kts
16-Jan-18 10:10 39.071311 -75.420600 91 25518ft 507kts
16-Jan-18 10:11 39.099667 -75.247793 59 25502ft 518kts
16-Jan-18 10:12 39.138118 -75.181160 52 25498ft 518kts
16-Jan-18 10:13 39.200308 -75.068040 54 25496ft 517kts
16-Jan-18 10:14 39.279109 -74.918153 55 25497ft 514kts
16-Jan-18 10:15 39.356572 -74.768720 54 25504ft 514kts
16-Jan-18 10:16 39.435191 -74.616444 54 25507ft 514kts
16-Jan-18 10:17 39.514987 -74.466665 53 25510ft 514kts
16-Jan-18 10:18 39.594174 -74.319803 53 25499ft 513kts
16-Jan-18 10:19 39.670222 -74.179200 51 24477ft 459kts
16-Jan-18 10:20 39.761151 -74.073732 36 22275ft 446kts
16-Jan-18 10:21 39.854001 -73.975578 24 20142ft 416kts
16-Jan-18 10:22 39.950551 -73.908117 23 18090ft 409kts
16-Jan-18 10:23 40.045917 -73.851223 358 15933ft 367kts
16-Jan-18 10:24 40.123202 -73.887078 319 14412ft 294kts
16-Jan-18 10:25 40.187003 -73.923841 331 13090ft 299kts
16-Jan-18 10:26 40.257579 -73.953318 334 11731ft 299kts
16-Jan-18 10:27 40.328340 -73.981039 337 10396ft 300kts
16-Jan-18 10:28 40.397030 -74.007675 341 9110ft 303kts
16-Jan-18 10:29 40.467873 -74.029568 353 7875ft 278kts
16-Jan-18 10:30 40.532972 -74.035170 354 6518ft 232kts
16-Jan-18 10:31 40.585814 -74.040156 354 5479ft 207kts
16-Jan-18 10:32 40.630153 -74.041211 20 4622ft 183kts
16-Jan-18 10:33 40.663853 -74.018479 24 3885ft 161kts
16-Jan-18 10:34 40.694351 -73.998058 25 3301ft 160kts
16-Jan-18 10:35 40.719820 -73.970640 39 2950ft 148kts
16-Jan-18 10:36 40.730160 -73.932906 126 2385ft 152kts
16-Jan-18 10:37 40.708037 -73.898792 123 1964ft 153kts
16-Jan-18 10:38 40.688879 -73.858850 120 1287ft 150kts
16-Jan-18 10:39 40.671858 -73.820703 119 602ft 153kts
16-Jan-18 10:40 40.655375 -73.784831 120 39ft 148kts
16-Jan-18 10:41 40.648220 -73.770848 222 20ft 10kts
16-Jan-18 10:42 40.648075 -73.771045 228 20ft 0kts
16-Jan-18 10:43 40.648075 -73.771045 228 20ft 0kts
16-Jan-18 10:44 40.648075 -73.771045 228 20ft 0kts
16-Jan-18 10:45 40.647693 -73.771746 236 20ft 13kts
16-Jan-18 10:46 40.647607 -73.773651 222 21ft 1kts
16-Jan-18 10:47 40.646461 -73.773548 179 21ft 0kts
16-Jan-18 10:48 40.646320 -73.773546 179 20ft 0kts
16-Jan-18 10:49 40.646320 -73.773546 179 20ft 0kts
16-Jan-18 10:50 40.646320 -73.773546 179 20ft 0kts
16-Jan-18 10:51 40.659750 -73.794488 118 157ft 147kts
16-Jan-18 10:52 40.654440 -73.782801 120 32ft 147kts
16-Jan-18 10:53 40.659278 -73.793407 119 142ft 147kts
16-Jan-18 10:54 40.646320 -73.773546 179 20ft 0kts
16-Jan-18 10:55 40.646320 -73.773546 179 20ft 0kts

Navigation Log

Ident Type
Flight plan parsing failed, navigation log unavailable